createdAt,value
2018-06-14T00:00:54.635Z,12.00
2018-06-14T00:02:29.405Z,13.20
2018-06-14T00:04:04.252Z,10.40
2018-06-14T00:05:40.656Z,9.60
2018-06-14T00:07:15.437Z,12.00
2018-06-14T00:08:51.343Z,11.60
2018-06-14T00:10:26.149Z,10.00
2018-06-14T00:12:01.275Z,9.00
2018-06-14T00:13:36.068Z,9.40
2018-06-14T00:15:13.065Z,11.60
2018-06-14T00:16:48.026Z,12.40
2018-06-14T00:18:22.821Z,12.00
2018-06-14T00:19:58.174Z,9.60
2018-06-14T00:21:33.139Z,11.20
2018-06-14T00:23:07.988Z,8.40
2018-06-14T00:24:44.799Z,10.80
2018-06-14T00:26:21.631Z,4.00
2018-06-14T00:28:03.609Z,12.00
2018-06-14T00:29:38.785Z,10.00
2018-06-14T00:31:13.596Z,12.00
2018-06-14T00:32:49.309Z,15.00
2018-06-14T00:34:26.729Z,11.20
2018-06-14T00:36:01.514Z,9.00
2018-06-14T00:37:36.211Z,10.00
2018-06-14T00:39:12.285Z,10.40
2018-06-14T00:40:47.132Z,8.60
2018-06-14T00:42:21.803Z,11.60
2018-06-14T00:43:56.519Z,10.00
2018-06-14T00:45:31.154Z,8.60
2018-06-14T00:47:06.375Z,10.40
2018-06-14T00:48:41.325Z,10.00
2018-06-14T00:50:17.125Z,9.40
2018-06-14T00:51:52.031Z,7.40
2018-06-14T00:53:27.614Z,8.80
2018-06-14T00:55:05.531Z,8.20
2018-06-14T00:56:50.962Z,8.80
2018-06-14T00:58:26.373Z,10.20
2018-06-14T01:00:01.169Z,6.00
2018-06-14T01:01:36.451Z,9.80
2018-06-14T01:03:12.634Z,6.40
2018-06-14T01:04:48.499Z,11.60
2018-06-14T01:06:23.525Z,9.60
2018-06-14T01:07:58.965Z,9.20
2018-06-14T01:09:33.769Z,10.40
2018-06-14T01:11:10.086Z,10.40
2018-06-14T01:12:46.977Z,9.80
2018-06-14T01:14:23.148Z,9.80
2018-06-14T01:15:59.623Z,6.80
2018-06-14T01:17:56.985Z,8.20
2018-06-14T01:19:31.884Z,7.80
2018-06-14T01:21:07.139Z,10.80
2018-06-14T01:22:45.078Z,9.40
2018-06-14T01:24:20.452Z,11.20
2018-06-14T01:26:03.266Z,10.80
2018-06-14T01:27:39.609Z,9.00
2018-06-14T01:29:16.485Z,9.60
2018-06-14T01:30:51.348Z,10.00
2018-06-14T01:32:27.833Z,9.00
2018-06-14T01:34:02.606Z,13.00
2018-06-14T01:35:38.891Z,8.80
2018-06-14T01:37:14.013Z,7.00
2018-06-14T01:38:49.170Z,8.80
2018-06-14T01:40:24.765Z,9.40
2018-06-14T01:41:59.618Z,12.00
2018-06-14T01:43:34.268Z,9.00
2018-06-14T01:45:09.727Z,9.80
2018-06-14T01:46:44.836Z,8.80
2018-06-14T01:48:20.596Z,10.60
2018-06-14T01:49:55.860Z,9.60
2018-06-14T01:51:30.696Z,10.60
2018-06-14T01:53:05.654Z,10.40
2018-06-14T01:54:40.558Z,10.00
2018-06-14T01:56:15.558Z,10.00
2018-06-14T01:57:52.627Z,12.00
2018-06-14T01:59:30.088Z,10.40
2018-06-14T02:01:05.416Z,9.80
2018-06-14T02:02:40.251Z,7.20
2018-06-14T02:04:15.012Z,12.80
2018-06-14T02:05:49.737Z,13.00
2018-06-14T02:07:27.256Z,10.40
2018-06-14T02:09:03.552Z,8.40
2018-06-14T02:10:40.181Z,10.00
2018-06-14T02:12:15.531Z,12.20
2018-06-14T02:13:50.942Z,10.40
2018-06-14T02:15:28.250Z,12.40
2018-06-14T02:17:03.448Z,10.60
2018-06-14T02:18:42.610Z,10.40
2018-06-14T02:20:19.603Z,10.80
2018-06-14T02:21:54.230Z,9.60
2018-06-14T02:23:29.263Z,6.20
2018-06-14T02:25:04.543Z,10.40
2018-06-14T02:26:41.577Z,11.60
2018-06-14T02:28:17.344Z,9.80
2018-06-14T02:29:52.135Z,10.00
2018-06-14T02:31:27.763Z,9.20
2018-06-14T02:33:04.583Z,8.20
2018-06-14T02:34:39.491Z,10.00
2018-06-14T02:36:14.471Z,9.60
2018-06-14T02:37:49.879Z,10.40
2018-06-14T02:39:24.689Z,11.20
2018-06-14T02:40:59.664Z,9.80
2018-06-14T02:42:34.568Z,9.60
2018-06-14T02:44:10.497Z,9.60
2018-06-14T02:45:46.195Z,11.60
2018-06-14T02:47:20.927Z,12.80
2018-06-14T02:48:56.572Z,12.00
2018-06-14T02:50:31.283Z,18.40
2018-06-14T02:52:06.199Z,7.40
2018-06-14T02:53:40.956Z,12.60
2018-06-14T02:55:15.712Z,11.00
2018-06-14T02:56:50.912Z,13.60
2018-06-14T02:58:25.647Z,14.40
2018-06-14T03:00:00.425Z,12.80
2018-06-14T03:01:35.503Z,11.60
2018-06-14T03:03:10.414Z,10.80
2018-06-14T03:04:48.561Z,9.60
2018-06-14T03:06:23.524Z,9.80
2018-06-14T03:07:58.378Z,15.00
2018-06-14T03:09:34.524Z,10.00
2018-06-14T03:11:10.873Z,17.40
2018-06-14T03:12:46.287Z,10.80
2018-06-14T03:14:21.018Z,9.60
2018-06-14T03:15:56.399Z,12.40
2018-06-14T03:17:31.090Z,15.00
2018-06-14T03:19:05.921Z,12.00
2018-06-14T03:20:41.363Z,11.00
2018-06-14T03:22:17.479Z,10.80
2018-06-14T03:23:52.256Z,12.00
2018-06-14T03:25:27.865Z,13.60
2018-06-14T03:27:02.659Z,12.60
2018-06-14T03:28:38.119Z,12.40
2018-06-14T03:30:14.958Z,14.60
2018-06-14T03:31:50.480Z,14.20
2018-06-14T03:33:25.740Z,13.00
2018-06-14T03:35:00.511Z,10.00
2018-06-14T03:36:36.468Z,13.00
2018-06-14T03:38:11.172Z,12.00
2018-06-14T03:39:45.951Z,9.00
2018-06-14T03:41:20.707Z,12.80
2018-06-14T03:42:57.289Z,14.80
2018-06-14T03:44:32.541Z,13.40
2018-06-14T03:46:07.359Z,13.40
2018-06-14T03:47:42.024Z,12.60
2018-06-14T03:49:18.778Z,12.00
2018-06-14T03:50:53.981Z,12.40
2018-06-14T03:52:29.594Z,10.00
2018-06-14T03:54:04.357Z,16.80
2018-06-14T03:55:39.189Z,12.80
2018-06-14T03:57:13.897Z,11.20
2018-06-14T03:58:48.913Z,12.40
2018-06-14T04:00:24.637Z,15.60
2018-06-14T04:01:59.811Z,17.60
2018-06-14T04:03:34.539Z,15.00
2018-06-14T04:05:09.382Z,13.40
2018-06-14T04:06:45.284Z,9.80
2018-06-14T04:08:21.002Z,9.40
2018-06-14T04:09:57.849Z,10.60
2018-06-14T04:11:32.503Z,14.60
2018-06-14T04:13:07.471Z,11.60
2018-06-14T04:14:42.127Z,12.40
2018-06-14T04:16:18.628Z,12.60
2018-06-14T04:17:57.667Z,11.20
2018-06-14T04:19:32.429Z,13.80
2018-06-14T04:21:07.206Z,12.00
2018-06-14T04:22:41.996Z,16.00
2018-06-14T04:24:17.220Z,12.00
2018-06-14T04:25:52.002Z,11.60
2018-06-14T04:27:26.792Z,15.00
2018-06-14T04:29:01.636Z,12.20
2018-06-14T04:30:37.488Z,10.80
2018-06-14T04:32:12.603Z,14.60
2018-06-14T04:33:47.260Z,15.40
2018-06-14T04:35:24.344Z,12.40
2018-06-14T04:37:00.446Z,11.60
2018-06-14T04:38:35.884Z,13.00
2018-06-14T04:40:11.130Z,14.20
2018-06-14T04:41:47.883Z,14.20
2018-06-14T04:43:23.604Z,15.20
2018-06-14T04:44:58.304Z,17.20
2018-06-14T04:46:34.287Z,12.40
2018-06-14T04:48:10.193Z,12.00
2018-06-14T04:49:45.795Z,10.80
2018-06-14T04:51:21.388Z,13.00
2018-06-14T04:52:57.103Z,17.20
2018-06-14T04:54:31.787Z,15.40
2018-06-14T04:56:07.808Z,14.60
2018-06-14T04:57:42.773Z,15.40
2018-06-14T04:59:17.632Z,13.00
2018-06-14T05:00:52.770Z,13.60
2018-06-14T05:02:28.594Z,10.00
2018-06-14T05:04:03.779Z,12.00
2018-06-14T05:05:39.178Z,14.80
2018-06-14T05:07:14.075Z,15.00
2018-06-14T05:08:48.853Z,14.40
2018-06-14T05:10:23.908Z,14.80
2018-06-14T05:11:59.983Z,13.40
2018-06-14T05:13:35.570Z,20.00
2018-06-14T05:15:11.730Z,16.60
2018-06-14T05:16:46.878Z,13.60
2018-06-14T05:18:23.173Z,16.20
2018-06-14T05:19:57.851Z,12.80
2018-06-14T05:21:34.150Z,15.60
2018-06-14T05:23:08.976Z,11.20
2018-06-14T05:24:44.739Z,13.00
2018-06-14T05:26:19.571Z,14.20
2018-06-14T05:29:54.338Z,12.60
2018-06-14T05:31:29.286Z,15.00
2018-06-14T05:33:04.702Z,16.00
2018-06-14T05:34:40.632Z,11.20
2018-06-14T05:36:18.948Z,13.40
2018-06-14T05:37:53.908Z,16.00
2018-06-14T05:39:28.640Z,13.20
2018-06-14T05:41:03.436Z,14.20
2018-06-14T05:42:38.181Z,16.60
2018-06-14T05:44:15.514Z,13.00
2018-06-14T05:45:50.288Z,12.60
2018-06-14T05:47:25.305Z,10.40
2018-06-14T05:49:02.407Z,11.60
2018-06-14T05:50:37.241Z,14.60
2018-06-14T05:52:14.639Z,12.60
2018-06-14T05:53:50.377Z,13.40
2018-06-14T05:55:26.389Z,13.80
2018-06-14T05:57:02.520Z,15.00
2018-06-14T05:58:37.175Z,11.40
2018-06-14T06:00:19.497Z,13.80
2018-06-14T06:01:54.361Z,11.40
2018-06-14T06:03:29.644Z,13.00
2018-06-14T06:05:05.171Z,13.60
2018-06-14T06:06:40.765Z,14.20
2018-06-14T06:08:15.563Z,16.00
2018-06-14T06:09:52.165Z,14.20
2018-06-14T06:11:27.004Z,14.60
2018-06-14T06:13:03.197Z,13.60
2018-06-14T06:14:38.555Z,11.00
2018-06-14T06:16:16.840Z,17.20
2018-06-14T06:17:51.651Z,13.00
2018-06-14T06:19:26.573Z,15.00
2018-06-14T06:21:01.864Z,12.60
2018-06-14T06:22:36.673Z,12.80
2018-06-14T06:24:12.245Z,17.60
2018-06-14T06:25:52.800Z,12.80
2018-06-14T06:27:27.577Z,14.60
2018-06-14T06:29:02.719Z,13.60
2018-06-14T06:30:38.038Z,13.00
2018-06-14T06:32:13.167Z,12.00
2018-06-14T06:33:47.841Z,11.00
2018-06-14T06:35:25.178Z,11.00
2018-06-14T06:37:00.364Z,15.00
2018-06-14T06:38:38.393Z,11.00
2018-06-14T06:40:13.152Z,13.40
2018-06-14T06:41:48.030Z,13.40
2018-06-14T06:43:23.267Z,11.40
2018-06-14T06:44:58.066Z,11.80
2018-06-14T06:46:32.815Z,10.60
2018-06-14T06:48:07.514Z,15.40
2018-06-14T06:49:42.706Z,10.60
2018-06-14T06:51:17.405Z,12.40
2018-06-14T06:52:52.891Z,14.00
2018-06-14T06:54:27.808Z,14.40
2018-06-14T06:56:02.601Z,12.20
2018-06-14T06:57:37.814Z,11.40
2018-06-14T06:59:14.784Z,15.00
2018-06-14T07:00:50.186Z,15.40
2018-06-14T07:02:24.845Z,15.00
2018-06-14T07:04:01.560Z,14.00
2018-06-14T07:05:39.810Z,11.60
2018-06-14T07:07:14.840Z,12.40
2018-06-14T07:08:50.651Z,17.00
2018-06-14T07:10:31.050Z,12.60
2018-06-14T07:12:09.845Z,13.40
2018-06-14T07:13:45.120Z,11.80
2018-06-14T07:15:22.313Z,12.20
2018-06-14T07:16:58.460Z,13.60
2018-06-14T07:18:33.278Z,14.40
2018-06-14T07:20:09.752Z,14.00
2018-06-14T07:21:45.683Z,9.00
2018-06-14T07:23:21.198Z,10.20
2018-06-14T07:24:57.587Z,10.80
2018-06-14T07:26:33.630Z,11.60
2018-06-14T07:28:11.648Z,12.40
2018-06-14T07:29:49.856Z,8.40
2018-06-14T07:31:26.024Z,12.20
2018-06-14T07:33:01.203Z,13.20
2018-06-14T07:34:35.972Z,14.20
2018-06-14T07:36:11.513Z,11.00
2018-06-14T07:37:48.184Z,11.20
2018-06-14T07:39:24.133Z,13.00
2018-06-14T07:41:01.123Z,10.80
2018-06-14T07:42:37.884Z,13.00
2018-06-14T07:44:12.709Z,13.80
2018-06-14T07:45:51.598Z,14.00
2018-06-14T07:49:21.452Z,11.40
2018-06-14T07:50:58.148Z,15.20
2018-06-14T07:52:34.505Z,13.80
2018-06-14T07:54:09.462Z,14.00
2018-06-14T07:55:44.371Z,15.20
2018-06-14T07:57:20.183Z,14.80
2018-06-14T07:58:56.482Z,14.80
2018-06-14T08:00:31.340Z,15.80
2018-06-14T08:02:06.161Z,13.20
2018-06-14T08:03:41.294Z,11.20
2018-06-14T08:05:16.418Z,14.20
2018-06-14T08:06:51.461Z,18.20
2018-06-14T08:08:26.455Z,18.40
2018-06-14T08:10:01.292Z,14.60
2018-06-14T08:11:36.376Z,13.60
2018-06-14T08:13:11.590Z,11.80
2018-06-14T08:14:49.309Z,14.80
2018-06-14T08:16:26.451Z,19.20
2018-06-14T08:18:01.943Z,14.00
2018-06-14T08:19:36.905Z,15.40
2018-06-14T08:21:12.095Z,14.00
2018-06-14T08:22:48.514Z,15.20
2018-06-14T08:24:25.659Z,11.20
2018-06-14T08:27:29.016Z,14.80
2018-06-14T08:29:06.905Z,17.60
2018-06-14T08:30:43.468Z,14.60
2018-06-14T08:32:22.334Z,13.80
2018-06-14T08:33:59.584Z,14.60
2018-06-14T08:35:36.375Z,14.80
2018-06-14T08:37:12.264Z,15.20
2018-06-14T08:38:50.075Z,17.20
2018-06-14T08:40:27.546Z,12.00
2018-06-14T08:42:02.978Z,11.20
2018-06-14T08:43:39.565Z,15.40
2018-06-14T08:45:20.285Z,12.80
2018-06-14T08:46:57.676Z,13.40
2018-06-14T08:48:34.381Z,13.60
2018-06-14T08:50:11.562Z,10.20
2018-06-14T08:51:48.361Z,15.00
2018-06-14T08:53:28.235Z,14.00
2018-06-14T08:55:04.466Z,14.20
2018-06-14T08:56:41.267Z,11.80
2018-06-14T08:58:18.615Z,14.20
2018-06-14T08:59:56.176Z,11.00
2018-06-14T09:01:31.500Z,16.60
2018-06-14T09:03:07.463Z,15.40
2018-06-14T09:04:43.483Z,14.60
2018-06-14T09:06:19.252Z,9.20
2018-06-14T09:13:31.008Z,12.80
2018-06-14T09:15:08.398Z,12.40
2018-06-14T09:16:44.319Z,14.80
2018-06-14T09:18:21.930Z,14.00
2018-06-14T09:20:00.516Z,12.40
2018-06-14T09:21:37.512Z,15.40
2018-06-14T09:23:13.322Z,16.00
2018-06-14T09:24:49.196Z,15.00
2018-06-14T09:26:25.202Z,12.40
2018-06-14T09:28:00.949Z,13.80
2018-06-14T09:29:37.202Z,14.40
2018-06-14T09:31:12.668Z,12.60
2018-06-14T09:32:48.445Z,15.20
2018-06-14T09:34:25.782Z,11.60
2018-06-14T09:36:02.341Z,18.00
2018-06-14T09:37:39.672Z,13.00
2018-06-14T09:39:16.987Z,13.40
2018-06-14T09:40:52.099Z,13.60
2018-06-14T09:42:28.804Z,12.20
2018-06-14T09:44:07.334Z,13.20
2018-06-14T09:47:16.298Z,11.60
2018-06-14T09:48:57.595Z,13.20
2018-06-14T09:50:34.759Z,15.40
2018-06-14T09:52:11.105Z,12.40
2018-06-14T09:53:48.123Z,15.20
2018-06-14T09:55:26.638Z,15.20
2018-06-14T09:57:02.331Z,12.20
2018-06-14T09:58:38.437Z,14.60
2018-06-14T10:00:17.221Z,13.60
2018-06-14T10:01:53.111Z,14.80
2018-06-14T10:03:29.400Z,14.00
2018-06-14T10:05:10.280Z,17.20
2018-06-14T10:06:47.576Z,14.00
2018-06-14T10:08:24.855Z,11.00
2018-06-14T10:10:00.227Z,14.60
2018-06-14T10:11:35.852Z,12.60
2018-06-14T10:13:12.392Z,15.80
2018-06-14T10:14:48.198Z,14.00
2018-06-14T10:16:25.557Z,17.60
2018-06-14T10:18:02.445Z,11.60
2018-06-14T10:19:42.881Z,17.20
2018-06-14T10:21:18.385Z,16.20
2018-06-14T10:22:56.038Z,16.00
2018-06-14T10:26:22.062Z,16.80
2018-06-14T10:28:02.462Z,19.80
2018-06-14T10:29:45.310Z,17.20
2018-06-14T10:31:24.930Z,15.20
2018-06-14T10:33:05.828Z,18.60
2018-06-14T10:34:42.863Z,15.60
2018-06-14T10:36:18.408Z,15.80
2018-06-14T10:37:54.548Z,21.80
2018-06-14T10:39:35.158Z,15.80
2018-06-14T10:41:13.466Z,137.40
2018-06-14T10:42:51.811Z,163.00
2018-06-14T10:44:30.680Z,46.20
2018-06-14T10:46:10.083Z,17.00
2018-06-14T10:47:53.621Z,15.80
2018-06-14T10:49:28.914Z,27.40
2018-06-14T10:51:08.788Z,11.80
2018-06-14T10:52:45.433Z,15.60
2018-06-14T10:56:18.595Z,14.40
2018-06-14T10:57:59.328Z,18.80
2018-06-14T10:59:38.890Z,14.40
2018-06-14T11:01:17.210Z,15.00
2018-06-14T11:02:54.678Z,13.60
2018-06-14T11:04:34.509Z,14.00
2018-06-14T11:06:13.541Z,10.60
2018-06-14T11:07:51.614Z,11.60
2018-06-14T11:09:28.709Z,12.40
2018-06-14T11:11:07.639Z,13.20
2018-06-14T11:12:54.818Z,14.00
2018-06-14T11:14:32.784Z,12.00
2018-06-14T11:16:10.703Z,12.00
2018-06-14T11:17:53.717Z,10.60
2018-06-14T11:19:33.655Z,14.80
2018-06-14T11:21:18.862Z,10.00
2018-06-14T11:22:56.422Z,10.80
2018-06-14T11:24:45.248Z,10.40
2018-06-14T11:26:23.635Z,12.00
2018-06-14T11:27:59.508Z,10.40
2018-06-14T11:29:34.868Z,9.20
2018-06-14T11:31:12.700Z,10.20
2018-06-14T11:32:49.569Z,12.80
2018-06-14T11:34:26.945Z,13.60
2018-06-14T11:36:05.273Z,12.60
2018-06-14T11:37:41.356Z,13.00
2018-06-14T11:39:20.949Z,9.40
2018-06-14T11:40:56.037Z,13.60
2018-06-14T11:42:37.548Z,11.00
2018-06-14T11:44:13.750Z,14.20
2018-06-14T11:45:50.066Z,10.20
2018-06-14T11:47:28.843Z,14.20
2018-06-14T11:49:05.020Z,13.80
2018-06-14T11:50:41.224Z,11.40
2018-06-14T11:52:17.014Z,12.80
2018-06-14T11:53:53.289Z,13.00
2018-06-14T11:55:29.135Z,14.20
2018-06-14T11:57:05.324Z,12.60
2018-06-14T11:58:41.919Z,16.00
2018-06-14T12:00:19.587Z,14.60
2018-06-14T12:01:56.549Z,12.40
2018-06-14T12:03:35.305Z,15.20
2018-06-14T12:05:12.584Z,10.80
2018-06-14T12:06:48.951Z,12.80
2018-06-14T12:08:27.894Z,14.60
2018-06-14T12:10:04.486Z,12.20
2018-06-14T12:11:42.947Z,16.00
2018-06-14T12:15:00.220Z,10.20
2018-06-14T12:16:36.898Z,12.20
2018-06-14T12:18:12.177Z,16.00
2018-06-14T12:19:51.044Z,13.20
2018-06-14T12:21:31.965Z,18.40
2018-06-14T12:23:09.458Z,14.00
2018-06-14T12:24:47.369Z,15.20
2018-06-14T12:26:23.260Z,12.20
2018-06-14T12:28:00.174Z,14.80
2018-06-14T12:29:39.496Z,14.00
2018-06-14T12:31:16.478Z,13.40
2018-06-14T12:32:53.762Z,12.20
2018-06-14T12:34:30.755Z,14.00
2018-06-14T12:36:09.338Z,13.00
2018-06-14T12:37:46.641Z,12.00
2018-06-14T12:39:29.055Z,12.40
2018-06-14T12:41:04.665Z,15.60
2018-06-14T12:42:43.797Z,12.20
2018-06-14T12:44:21.462Z,13.60
2018-06-14T12:46:00.759Z,11.00
2018-06-14T12:47:38.678Z,13.00
2018-06-14T12:49:17.120Z,13.40
2018-06-14T12:50:54.314Z,13.00
2018-06-14T12:52:30.653Z,13.20
2018-06-14T12:54:09.399Z,13.40
2018-06-14T12:55:47.794Z,15.00
2018-06-14T12:57:25.985Z,11.80
2018-06-14T12:59:07.553Z,13.20
2018-06-14T13:00:49.553Z,15.60
2018-06-14T13:02:30.228Z,16.00
2018-06-14T13:04:09.039Z,15.20
2018-06-14T13:05:49.599Z,15.00
2018-06-14T13:07:29.863Z,11.80
2018-06-14T13:09:09.637Z,15.20
2018-06-14T13:12:42.194Z,9.40
2018-06-14T13:14:18.294Z,11.00
2018-06-14T13:15:57.240Z,13.60
2018-06-14T13:17:43.022Z,10.60
2018-06-14T13:19:19.978Z,9.00
2018-06-14T13:20:56.407Z,13.80
2018-06-14T13:22:38.317Z,14.60
2018-06-14T13:24:24.909Z,15.20
2018-06-14T13:26:06.605Z,9.20
2018-06-14T13:27:42.700Z,11.80
2018-06-14T13:29:18.967Z,14.40
2018-06-14T13:30:56.639Z,11.40
2018-06-14T13:32:33.462Z,8.80
2018-06-14T13:34:09.152Z,12.80
2018-06-14T13:35:47.489Z,12.40
2018-06-14T13:37:26.196Z,10.80
2018-06-14T13:39:01.429Z,14.00
2018-06-14T13:40:39.453Z,13.40
2018-06-14T13:42:19.273Z,12.60
2018-06-14T13:43:59.213Z,14.00
2018-06-14T13:45:36.006Z,12.40
2018-06-14T13:47:13.393Z,13.20
2018-06-14T13:50:39.436Z,13.20
2018-06-14T13:52:15.663Z,14.00
2018-06-14T13:54:09.281Z,12.40
2018-06-14T13:55:45.932Z,12.60
2018-06-14T13:57:23.061Z,12.20
2018-06-14T13:59:00.543Z,12.20
2018-06-14T14:00:41.062Z,8.60
2018-06-14T14:02:29.151Z,13.00
2018-06-14T14:04:07.392Z,11.00
2018-06-14T14:05:44.960Z,14.00
2018-06-14T14:07:27.127Z,13.60
2018-06-14T14:09:06.610Z,13.00
2018-06-14T14:10:43.679Z,9.00
2018-06-14T14:12:20.008Z,12.40
2018-06-14T14:13:57.657Z,10.00
2018-06-14T14:15:39.526Z,9.80
2018-06-14T14:17:16.276Z,10.40
2018-06-14T14:18:53.115Z,12.80
2018-06-14T14:20:31.284Z,10.40
2018-06-14T14:22:07.610Z,13.60
2018-06-14T14:23:47.584Z,11.40
2018-06-14T14:25:23.962Z,9.80
2018-06-14T14:27:04.487Z,10.20
2018-06-14T14:28:41.770Z,12.00
2018-06-14T14:30:20.201Z,10.00
2018-06-14T14:31:57.113Z,13.60
2018-06-14T14:33:46.939Z,8.20
2018-06-14T14:35:29.037Z,10.20
2018-06-14T14:37:10.632Z,11.00
2018-06-14T14:38:56.428Z,11.20
2018-06-14T14:40:37.040Z,13.40
2018-06-14T14:42:16.397Z,12.00
2018-06-14T14:43:54.207Z,11.80
2018-06-14T14:45:32.217Z,11.60
2018-06-14T14:47:08.651Z,13.40
2018-06-14T14:48:49.998Z,12.20
2018-06-14T14:50:26.798Z,10.80
2018-06-14T14:52:05.978Z,12.60
2018-06-14T14:53:48.443Z,14.00
2018-06-14T14:55:27.458Z,9.40
2018-06-14T14:57:07.331Z,11.00
2018-06-14T14:58:57.766Z,10.00
2018-06-14T15:00:33.830Z,12.80
2018-06-14T15:02:13.269Z,12.00
2018-06-14T15:04:00.065Z,10.20
2018-06-14T15:05:40.016Z,11.60
2018-06-14T15:07:16.138Z,9.80
2018-06-14T15:09:06.394Z,11.00
2018-06-14T15:10:51.340Z,9.00
2018-06-14T15:12:34.662Z,13.00
2018-06-14T15:14:10.088Z,10.80
2018-06-14T15:15:55.120Z,11.20
2018-06-14T15:17:36.621Z,9.60
2018-06-14T15:20:57.494Z,13.00
2018-06-14T15:22:54.417Z,12.80
2018-06-14T15:24:38.151Z,12.80
2018-06-14T15:26:21.450Z,11.20
2018-06-14T15:28:10.597Z,11.60
2018-06-14T15:29:53.511Z,14.00
2018-06-14T15:31:33.053Z,10.40
2018-06-14T15:33:13.394Z,14.40
2018-06-14T15:34:55.146Z,10.40
2018-06-14T15:36:48.636Z,11.40
2018-06-14T15:38:38.698Z,11.40
2018-06-14T15:40:23.432Z,14.20
2018-06-14T15:42:04.999Z,13.00
2018-06-14T15:43:46.264Z,13.00
2018-06-14T15:45:23.805Z,15.60
2018-06-14T15:47:07.219Z,11.00
2018-06-14T15:48:50.084Z,11.40
2018-06-14T15:53:55.356Z,10.60
2018-06-14T15:57:38.784Z,12.80
2018-06-14T15:59:24.998Z,9.80
2018-06-14T16:01:01.563Z,11.40
2018-06-14T16:02:41.552Z,10.20
2018-06-14T16:04:19.349Z,11.00
2018-06-14T16:06:05.967Z,12.20
2018-06-14T16:07:49.565Z,9.20
2018-06-14T16:09:26.970Z,11.80
2018-06-14T16:11:05.653Z,12.00
2018-06-14T16:12:44.686Z,15.40
2018-06-14T16:14:19.796Z,14.40
2018-06-14T16:15:57.507Z,14.80
2018-06-14T16:17:37.875Z,11.00
2018-06-14T16:19:16.699Z,9.00
2018-06-14T16:20:55.399Z,16.80
2018-06-14T16:22:33.456Z,14.80
2018-06-14T16:26:05.977Z,14.60
2018-06-14T16:27:44.617Z,17.00
2018-06-14T16:29:23.213Z,14.80
2018-06-14T16:31:01.392Z,17.80
2018-06-14T16:34:31.282Z,17.00
2018-06-14T16:36:11.553Z,17.20
2018-06-14T16:37:49.658Z,15.60
2018-06-14T16:39:30.552Z,18.60
2018-06-14T16:41:09.573Z,16.20
2018-06-14T16:42:49.498Z,19.40
2018-06-14T16:44:27.589Z,19.00
2018-06-14T16:46:08.161Z,15.00
2018-06-14T16:47:48.454Z,18.80
2018-06-14T16:49:25.748Z,15.20
2018-06-14T16:51:02.004Z,18.60
2018-06-14T16:52:40.445Z,16.20
2018-06-14T16:54:17.119Z,28.40
2018-06-14T16:55:52.396Z,20.20
2018-06-14T16:57:29.850Z,26.20
2018-06-14T16:59:05.823Z,22.40
2018-06-14T17:00:43.310Z,13.20
2018-06-14T17:02:19.613Z,21.40
2018-06-14T17:03:57.374Z,18.80
2018-06-14T17:05:34.703Z,20.20
2018-06-14T17:07:17.404Z,21.80
2018-06-14T17:08:55.549Z,23.20
2018-06-14T17:10:36.609Z,22.80
2018-06-14T17:12:14.991Z,15.60
2018-06-14T17:13:54.642Z,19.40
2018-06-14T17:15:32.846Z,27.60
2018-06-14T17:17:09.193Z,24.80
2018-06-14T17:18:50.532Z,21.00
2018-06-14T17:20:30.721Z,15.60
2018-06-14T17:22:08.672Z,17.60
2018-06-14T17:23:46.986Z,20.20
2018-06-14T17:25:27.091Z,20.20
2018-06-14T17:27:09.313Z,22.20
2018-06-14T17:28:50.711Z,20.20
2018-06-14T17:30:30.021Z,24.60
2018-06-14T17:32:10.296Z,23.00
2018-06-14T17:33:50.850Z,19.80
2018-06-14T17:35:31.225Z,19.40
2018-06-14T17:37:09.306Z,18.80
2018-06-14T17:38:48.730Z,19.40
2018-06-14T17:40:33.737Z,21.20
2018-06-14T17:42:16.765Z,23.20
2018-06-14T17:44:01.379Z,23.40
2018-06-14T17:45:41.736Z,21.00
2018-06-14T17:47:21.712Z,21.80
2018-06-14T17:49:03.342Z,24.20
2018-06-14T17:50:48.282Z,22.60
2018-06-14T17:52:36.332Z,24.40
2018-06-14T17:54:20.019Z,18.60
2018-06-14T17:55:58.207Z,25.20
2018-06-14T17:57:44.790Z,25.80
2018-06-14T17:59:27.280Z,21.60
2018-06-14T18:01:12.116Z,20.60
2018-06-14T18:02:53.549Z,21.60
2018-06-14T18:04:41.555Z,21.80
2018-06-14T18:06:23.749Z,22.00
2018-06-14T18:08:08.811Z,23.20
2018-06-14T18:09:46.690Z,19.80
2018-06-14T18:11:25.874Z,25.80
2018-06-14T18:13:02.639Z,22.60
2018-06-14T18:14:41.479Z,18.00
2018-06-14T18:16:18.244Z,23.00
2018-06-14T18:17:59.459Z,21.40
2018-06-14T18:19:40.245Z,24.00
2018-06-14T18:21:21.433Z,25.40
2018-06-14T18:23:11.185Z,25.20
2018-06-14T18:24:50.311Z,24.00
2018-06-14T18:26:37.045Z,22.00
2018-06-14T18:28:13.860Z,18.20
2018-06-14T18:29:50.988Z,25.00
2018-06-14T18:31:30.600Z,25.80
2018-06-14T18:33:07.993Z,18.20
2018-06-14T18:34:44.747Z,15.00
2018-06-14T18:36:25.480Z,18.80
2018-06-14T18:38:02.898Z,24.20
2018-06-14T18:39:40.885Z,21.60
2018-06-14T18:43:22.519Z,24.00
2018-06-14T18:45:10.373Z,21.40
2018-06-14T18:46:50.640Z,18.80
2018-06-14T18:48:34.651Z,21.60
2018-06-14T18:50:13.639Z,19.80
2018-06-14T18:53:57.331Z,21.60
2018-06-14T18:55:42.100Z,20.60
2018-06-14T18:57:22.220Z,16.40
2018-06-14T18:59:16.266Z,22.00
2018-06-14T19:00:59.273Z,26.20
2018-06-14T19:02:38.097Z,20.40
2018-06-14T19:04:20.046Z,21.80
2018-06-14T19:06:08.081Z,24.40
2018-06-14T19:07:46.761Z,20.00
2018-06-14T19:09:26.316Z,23.60
2018-06-14T19:12:57.375Z,24.60
2018-06-14T19:14:37.224Z,18.40
2018-06-14T19:16:20.533Z,21.80
2018-06-14T19:18:02.077Z,19.80
2018-06-14T19:19:38.246Z,16.40
2018-06-14T19:21:15.653Z,18.00
2018-06-14T19:22:54.018Z,21.60
2018-06-14T19:24:29.268Z,18.00
2018-06-14T19:26:05.207Z,23.60
2018-06-14T19:27:42.807Z,19.80
2018-06-14T19:29:19.544Z,17.20
2018-06-14T19:30:57.412Z,18.00
2018-06-14T19:32:41.798Z,17.60
2018-06-14T19:34:17.339Z,19.80
2018-06-14T19:35:56.236Z,18.00
2018-06-14T19:37:37.610Z,26.00
2018-06-14T19:39:16.442Z,23.60
2018-06-14T19:40:54.538Z,18.80
2018-06-14T19:42:40.562Z,21.40
2018-06-14T19:44:21.937Z,24.40
2018-06-14T19:46:05.209Z,17.20
2018-06-14T19:47:47.864Z,19.40
2018-06-14T19:49:29.567Z,19.80
2018-06-14T19:51:10.909Z,24.60
2018-06-14T19:53:54.006Z,24.00
2018-06-14T19:55:37.667Z,19.80
2018-06-14T19:57:22.879Z,18.40
2018-06-14T19:59:06.868Z,22.40
2018-06-14T20:00:49.448Z,27.60
2018-06-14T20:02:27.850Z,23.00
2018-06-14T20:04:06.418Z,24.60
2018-06-14T20:05:45.060Z,22.40
2018-06-14T20:07:25.972Z,20.40
2018-06-14T20:09:05.419Z,19.40
2018-06-14T20:10:43.568Z,22.60
2018-06-14T20:12:26.297Z,24.00
2018-06-14T20:14:07.732Z,23.20
2018-06-14T20:15:47.431Z,26.60
2018-06-14T20:17:24.617Z,29.40
2018-06-14T20:19:00.524Z,26.80
2018-06-14T20:20:43.276Z,19.40
2018-06-14T20:22:20.560Z,21.80
2018-06-14T20:23:58.322Z,25.80
2018-06-14T20:25:37.014Z,29.60
2018-06-14T20:27:20.527Z,30.00
2018-06-14T20:29:02.285Z,29.20
2018-06-14T20:30:42.507Z,27.80
2018-06-14T20:32:23.462Z,22.20
2018-06-14T20:34:02.747Z,28.80
2018-06-14T20:35:40.605Z,19.80
2018-06-14T20:37:22.294Z,21.80
2018-06-14T20:39:04.608Z,29.20
2018-06-14T20:40:46.592Z,25.40
2018-06-14T20:42:25.955Z,28.00
2018-06-14T20:44:22.099Z,22.40
2018-06-14T20:46:10.568Z,29.20
2018-06-14T20:47:52.167Z,30.00
2018-06-14T20:49:35.314Z,23.60
2018-06-14T20:51:17.952Z,23.40
2018-06-14T20:54:59.934Z,28.00
2018-06-14T20:56:45.698Z,27.20
2018-06-14T20:58:25.967Z,31.00
2018-06-14T21:00:06.350Z,23.60
2018-06-14T21:01:46.241Z,24.80
2018-06-14T21:03:28.356Z,22.00
2018-06-14T21:05:07.962Z,26.60
2018-06-14T21:06:52.929Z,28.60
2018-06-14T21:08:37.638Z,23.80
2018-06-14T21:10:16.348Z,26.00
2018-06-14T21:11:59.541Z,27.40
2018-06-14T21:13:52.278Z,24.60
2018-06-14T21:15:36.609Z,18.20
2018-06-14T21:17:18.744Z,28.40
2018-06-14T21:18:58.964Z,32.60
2018-06-14T21:22:24.752Z,28.40
2018-06-14T21:24:10.364Z,34.80
2018-06-14T21:25:50.861Z,18.20
2018-06-14T21:27:28.506Z,21.40
2018-06-14T21:29:15.637Z,23.60
2018-06-14T21:31:02.335Z,21.00
2018-06-14T21:32:44.653Z,24.40
2018-06-14T21:36:19.844Z,13.00
2018-06-14T21:39:45.576Z,32.20
2018-06-14T21:41:27.723Z,32.00
2018-06-14T21:43:14.761Z,20.80
2018-06-14T21:44:54.429Z,21.80
2018-06-14T21:46:34.257Z,22.20
2018-06-14T21:48:17.291Z,24.40
2018-06-14T21:50:15.511Z,26.20
2018-06-14T21:51:58.634Z,23.80
2018-06-14T21:53:39.830Z,26.20
2018-06-14T21:55:22.637Z,28.80